sensor_id;sensor_type;location;lat;lon;timestamp;temperature;humidity
17918;DHT22;9084;50.956;3.106;2023-09-07T00:01:13;20.20;99.90
17918;DHT22;9084;50.956;3.106;2023-09-07T00:03:38;20.20;99.90
17918;DHT22;9084;50.956;3.106;2023-09-07T00:06:07;20.20;99.90
17918;DHT22;9084;50.956;3.106;2023-09-07T00:08:33;20.20;99.90
17918;DHT22;9084;50.956;3.106;2023-09-07T00:11:09;20.10;99.90
17918;DHT22;9084;50.956;3.106;2023-09-07T00:13:35;20.10;99.90
17918;DHT22;9084;50.956;3.106;2023-09-07T00:16:03;20.10;99.90
17918;DHT22;9084;50.956;3.106;2023-09-07T00:18:32;20.10;99.90
17918;DHT22;9084;50.956;3.106;2023-09-07T00:20:59;20.00;99.90
17918;DHT22;9084;50.956;3.106;2023-09-07T00:23:25;20.00;99.90
17918;DHT22;9084;50.956;3.106;2023-09-07T00:25:50;20.00;99.90
17918;DHT22;9084;50.956;3.106;2023-09-07T00:28:16;20.00;99.90
17918;DHT22;9084;50.956;3.106;2023-09-07T00:30:44;20.00;99.90
17918;DHT22;9084;50.956;3.106;2023-09-07T00:33:10;19.90;99.90
17918;DHT22;9084;50.956;3.106;2023-09-07T00:35:36;20.00;99.90
17918;DHT22;9084;50.956;3.106;2023-09-07T00:38:02;19.90;99.90
17918;DHT22;9084;50.956;3.106;2023-09-07T00:40:28;19.90;99.90
17918;DHT22;9084;50.956;3.106;2023-09-07T00:42:56;19.90;99.90
17918;DHT22;9084;50.956;3.106;2023-09-07T00:45:22;19.90;99.90
17918;DHT22;9084;50.956;3.106;2023-09-07T00:47:48;19.90;99.90
17918;DHT22;9084;50.956;3.106;2023-09-07T00:50:14;19.90;99.90
17918;DHT22;9084;50.956;3.106;2023-09-07T00:52:44;19.90;99.90
17918;DHT22;9084;50.956;3.106;2023-09-07T00:55:12;19.90;99.90
17918;DHT22;9084;50.956;3.106;2023-09-07T00:57:38;19.90;99.90
17918;DHT22;9084;50.956;3.106;2023-09-07T01:00:08;19.80;99.90
17918;DHT22;9084;50.956;3.106;2023-09-07T01:02:34;19.80;99.90
17918;DHT22;9084;50.956;3.106;2023-09-07T01:05:01;19.80;99.90
17918;DHT22;9084;50.956;3.106;2023-09-07T01:07:38;19.80;99.90
17918;DHT22;9084;50.956;3.106;2023-09-07T01:10:06;19.80;99.90
17918;DHT22;9084;50.956;3.106;2023-09-07T01:12:33;19.70;99.90
17918;DHT22;9084;50.956;3.106;2023-09-07T01:14:59;19.70;99.90
17918;DHT22;9084;50.956;3.106;2023-09-07T01:17:25;19.70;99.90
17918;DHT22;9084;50.956;3.106;2023-09-07T01:19:54;19.70;99.90
17918;DHT22;9084;50.956;3.106;2023-09-07T01:22:22;19.70;99.90
17918;DHT22;9084;50.956;3.106;2023-09-07T01:24:48;19.60;99.90
17918;DHT22;9084;50.956;3.106;2023-09-07T01:27:16;19.60;99.90
17918;DHT22;9084;50.956;3.106;2023-09-07T01:29:42;19.60;99.90
17918;DHT22;9084;50.956;3.106;2023-09-07T01:32:10;19.50;99.90
17918;DHT22;9084;50.956;3.106;2023-09-07T01:34:36;19.50;99.90
17918;DHT22;9084;50.956;3.106;2023-09-07T01:37:02;19.50;99.90
17918;DHT22;9084;50.956;3.106;2023-09-07T01:39:27;19.40;99.90
17918;DHT22;9084;50.956;3.106;2023-09-07T01:41:53;19.40;99.90
17918;DHT22;9084;50.956;3.106;2023-09-07T01:44:19;19.40;99.90
17918;DHT22;9084;50.956;3.106;2023-09-07T01:46:45;19.40;99.90
17918;DHT22;9084;50.956;3.106;2023-09-07T01:49:10;19.40;99.90
17918;DHT22;9084;50.956;3.106;2023-09-07T01:51:36;19.40;99.90
17918;DHT22;9084;50.956;3.106;2023-09-07T01:54:02;19.30;99.90
17918;DHT22;9084;50.956;3.106;2023-09-07T01:56:30;19.30;99.90
17918;DHT22;9084;50.956;3.106;2023-09-07T01:58:56;19.30;99.90
17918;DHT22;9084;50.956;3.106;2023-09-07T02:01:25;19.30;99.90
17918;DHT22;9084;50.956;3.106;2023-09-07T02:03:52;19.20;99.90
17918;DHT22;9084;50.956;3.106;2023-09-07T02:06:18;19.20;99.90
17918;DHT22;9084;50.956;3.106;2023-09-07T02:08:46;19.20;99.90
17918;DHT22;9084;50.956;3.106;2023-09-07T02:11:12;19.20;99.90
17918;DHT22;9084;50.956;3.106;2023-09-07T02:13:41;19.20;99.90
17918;DHT22;9084;50.956;3.106;2023-09-07T02:16:09;19.20;99.90
17918;DHT22;9084;50.956;3.106;2023-09-07T02:18:37;19.20;99.90
17918;DHT22;9084;50.956;3.106;2023-09-07T02:21:09;19.10;99.90
17918;DHT22;9084;50.956;3.106;2023-09-07T02:23:35;19.10;99.90
17918;DHT22;9084;50.956;3.106;2023-09-07T02:26:04;19.00;99.90
17918;DHT22;9084;50.956;3.106;2023-09-07T02:28:32;19.00;99.90
17918;DHT22;9084;50.956;3.106;2023-09-07T02:31:05;19.00;99.90
17918;DHT22;9084;50.956;3.106;2023-09-07T02:33:30;19.00;99.90
17918;DHT22;9084;50.956;3.106;2023-09-07T02:35:57;18.90;99.90
17918;DHT22;9084;50.956;3.106;2023-09-07T02:38:23;18.90;99.90
17918;DHT22;9084;50.956;3.106;2023-09-07T02:40:48;18.80;99.90
17918;DHT22;9084;50.956;3.106;2023-09-07T02:43:14;18.80;99.90
17918;DHT22;9084;50.956;3.106;2023-09-07T02:45:41;18.80;99.90
17918;DHT22;9084;50.956;3.106;2023-09-07T02:48:09;18.80;99.90
17918;DHT22;9084;50.956;3.106;2023-09-07T02:50:35;18.70;99.90
17918;DHT22;9084;50.956;3.106;2023-09-07T02:53:01;18.70;99.90
17918;DHT22;9084;50.956;3.106;2023-09-07T02:55:28;18.70;99.90
17918;DHT22;9084;50.956;3.106;2023-09-07T02:57:55;18.60;99.90
17918;DHT22;9084;50.956;3.106;2023-09-07T03:00:21;18.60;99.90
17918;DHT22;9084;50.956;3.106;2023-09-07T03:02:48;18.60;99.90
17918;DHT22;9084;50.956;3.106;2023-09-07T03:05:15;18.60;99.90
17918;DHT22;9084;50.956;3.106;2023-09-07T03:07:41;18.60;99.90
17918;DHT22;9084;50.956;3.106;2023-09-07T03:10:06;18.60;99.90
17918;DHT22;9084;50.956;3.106;2023-09-07T03:12:34;18.50;99.90
17918;DHT22;9084;50.956;3.106;2023-09-07T03:15:03;18.50;99.90
17918;DHT22;9084;50.956;3.106;2023-09-07T03:17:29;18.50;99.90
17918;DHT22;9084;50.956;3.106;2023-09-07T03:19:55;18.50;99.90
17918;DHT22;9084;50.956;3.106;2023-09-07T03:22:21;18.40;99.90
17918;DHT22;9084;50.956;3.106;2023-09-07T03:24:50;18.40;99.90
17918;DHT22;9084;50.956;3.106;2023-09-07T03:27:18;18.40;99.90
17918;DHT22;9084;50.956;3.106;2023-09-07T03:29:49;18.30;99.90
17918;DHT22;9084;50.956;3.106;2023-09-07T03:32:17;18.30;99.90
17918;DHT22;9084;50.956;3.106;2023-09-07T03:34:42;18.30;99.90
17918;DHT22;9084;50.956;3.106;2023-09-07T03:37:08;18.30;99.90
17918;DHT22;9084;50.956;3.106;2023-09-07T03:39:37;18.30;99.90
17918;DHT22;9084;50.956;3.106;2023-09-07T03:42:02;18.30;99.90
17918;DHT22;9084;50.956;3.106;2023-09-07T03:44:28;18.30;99.90
17918;DHT22;9084;50.956;3.106;2023-09-07T03:46:53;18.20;99.90
17918;DHT22;9084;50.956;3.106;2023-09-07T03:49:19;18.20;99.90
17918;DHT22;9084;50.956;3.106;2023-09-07T03:51:47;18.20;99.90
17918;DHT22;9084;50.956;3.106;2023-09-07T03:54:18;18.20;99.90
17918;DHT22;9084;50.956;3.106;2023-09-07T03:56:43;18.20;99.90
17918;DHT22;9084;50.956;3.106;2023-09-07T03:59:09;18.10;99.90
17918;DHT22;9084;50.956;3.106;2023-09-07T04:01:36;18.10;99.90
17918;DHT22;9084;50.956;3.106;2023-09-07T04:04:02;18.10;99.90
17918;DHT22;9084;50.956;3.106;2023-09-07T04:06:30;18.10;99.90
17918;DHT22;9084;50.956;3.106;2023-09-07T04:08:56;18.10;99.90
17918;DHT22;9084;50.956;3.106;2023-09-07T04:11:22;18.10;99.90
17918;DHT22;9084;50.956;3.106;2023-09-07T04:13:47;18.00;99.90
17918;DHT22;9084;50.956;3.106;2023-09-07T04:16:14;18.00;99.90
17918;DHT22;9084;50.956;3.106;2023-09-07T04:18:41;18.00;99.90
17918;DHT22;9084;50.956;3.106;2023-09-07T04:21:09;18.00;99.90
17918;DHT22;9084;50.956;3.106;2023-09-07T04:23:37;18.00;99.90
17918;DHT22;9084;50.956;3.106;2023-09-07T04:26:11;18.00;99.90
17918;DHT22;9084;50.956;3.106;2023-09-07T04:28:40;18.00;99.90
17918;DHT22;9084;50.956;3.106;2023-09-07T04:31:06;18.00;99.90
17918;DHT22;9084;50.956;3.106;2023-09-07T04:33:34;17.90;99.90
17918;DHT22;9084;50.956;3.106;2023-09-07T04:36:10;17.90;99.90
17918;DHT22;9084;50.956;3.106;2023-09-07T04:38:38;17.90;99.90
17918;DHT22;9084;50.956;3.106;2023-09-07T04:41:11;17.90;99.90
17918;DHT22;9084;50.956;3.106;2023-09-07T04:43:38;17.90;99.90
17918;DHT22;9084;50.956;3.106;2023-09-07T04:46:11;17.80;99.90
17918;DHT22;9084;50.956;3.106;2023-09-07T04:48:37;17.80;99.90
17918;DHT22;9084;50.956;3.106;2023-09-07T04:51:08;17.80;99.90
17918;DHT22;9084;50.956;3.106;2023-09-07T04:53:35;17.80;99.90
17918;DHT22;9084;50.956;3.106;2023-09-07T04:56:02;17.80;99.90
17918;DHT22;9084;50.956;3.106;2023-09-07T04:58:28;17.80;99.90
17918;DHT22;9084;50.956;3.106;2023-09-07T05:00:54;17.80;99.90
17918;DHT22;9084;50.956;3.106;2023-09-07T05:03:20;17.70;99.90
17918;DHT22;9084;50.956;3.106;2023-09-07T05:05:51;17.70;99.90
17918;DHT22;9084;50.956;3.106;2023-09-07T05:08:17;17.70;99.90
17918;DHT22;9084;50.956;3.106;2023-09-07T05:10:42;17.70;99.90
17918;DHT22;9084;50.956;3.106;2023-09-07T05:13:08;17.70;99.90
17918;DHT22;9084;50.956;3.106;2023-09-07T05:15:34;17.70;99.90
17918;DHT22;9084;50.956;3.106;2023-09-07T05:18:02;17.70;99.90
17918;DHT22;9084;50.956;3.106;2023-09-07T05:20:30;17.70;99.90
17918;DHT22;9084;50.956;3.106;2023-09-07T05:22:55;17.70;99.90
17918;DHT22;9084;50.956;3.106;2023-09-07T05:25:24;17.70;99.90
17918;DHT22;9084;50.956;3.106;2023-09-07T05:27:50;17.70;99.90
17918;DHT22;9084;50.956;3.106;2023-09-07T05:30:16;17.70;99.90
17918;DHT22;9084;50.956;3.106;2023-09-07T05:32:46;17.70;99.90
17918;DHT22;9084;50.956;3.106;2023-09-07T05:35:12;17.70;99.90
17918;DHT22;9084;50.956;3.106;2023-09-07T05:37:37;17.70;99.90
17918;DHT22;9084;50.956;3.106;2023-09-07T05:40:06;17.70;99.90
17918;DHT22;9084;50.956;3.106;2023-09-07T05:42:34;17.70;99.90
17918;DHT22;9084;50.956;3.106;2023-09-07T05:45:02;17.80;99.90
17918;DHT22;9084;50.956;3.106;2023-09-07T05:47:29;17.80;99.90
17918;DHT22;9084;50.956;3.106;2023-09-07T05:49:54;17.90;99.90
17918;DHT22;9084;50.956;3.106;2023-09-07T05:52:20;17.80;99.90
17918;DHT22;9084;50.956;3.106;2023-09-07T05:54:45;17.90;99.90
17918;DHT22;9084;50.956;3.106;2023-09-07T05:57:11;17.90;99.90
17918;DHT22;9084;50.956;3.106;2023-09-07T05:59:39;17.90;99.90
17918;DHT22;9084;50.956;3.106;2023-09-07T06:02:07;18.00;99.90
17918;DHT22;9084;50.956;3.106;2023-09-07T06:04:32;18.10;99.90
17918;DHT22;9084;50.956;3.106;2023-09-07T06:06:58;18.40;99.90
17918;DHT22;9084;50.956;3.106;2023-09-07T06:09:24;18.20;99.90
17918;DHT22;9084;50.956;3.106;2023-09-07T06:11:49;18.20;99.90
17918;DHT22;9084;50.956;3.106;2023-09-07T06:14:17;18.30;99.90
17918;DHT22;9084;50.956;3.106;2023-09-07T06:16:43;18.40;99.90
17918;DHT22;9084;50.956;3.106;2023-09-07T06:19:08;18.40;99.90
17918;DHT22;9084;50.956;3.106;2023-09-07T06:21:38;18.50;99.90
17918;DHT22;9084;50.956;3.106;2023-09-07T06:24:04;18.60;99.90
17918;DHT22;9084;50.956;3.106;2023-09-07T06:26:32;18.60;99.90
17918;DHT22;9084;50.956;3.106;2023-09-07T06:28:57;18.60;99.90
17918;DHT22;9084;50.956;3.106;2023-09-07T06:31:23;18.70;99.90
17918;DHT22;9084;50.956;3.106;2023-09-07T06:33:51;18.80;99.90
17918;DHT22;9084;50.956;3.106;2023-09-07T06:36:17;18.80;99.90
17918;DHT22;9084;50.956;3.106;2023-09-07T06:38:42;18.90;99.90
17918;DHT22;9084;50.956;3.106;2023-09-07T06:41:13;18.90;99.90
17918;DHT22;9084;50.956;3.106;2023-09-07T06:43:38;19.00;99.90
17918;DHT22;9084;50.956;3.106;2023-09-07T06:46:07;19.00;99.90
17918;DHT22;9084;50.956;3.106;2023-09-07T06:48:33;19.10;99.90
17918;DHT22;9084;50.956;3.106;2023-09-07T06:51:06;19.20;99.90
17918;DHT22;9084;50.956;3.106;2023-09-07T06:53:32;19.20;99.90
17918;DHT22;9084;50.956;3.106;2023-09-07T06:56:03;19.20;99.90
17918;DHT22;9084;50.956;3.106;2023-09-07T06:58:32;19.30;99.90
17918;DHT22;9084;50.956;3.106;2023-09-07T07:01:00;19.40;99.90
17918;DHT22;9084;50.956;3.106;2023-09-07T07:03:28;19.40;99.90
17918;DHT22;9084;50.956;3.106;2023-09-07T07:05:54;19.50;99.90
17918;DHT22;9084;50.956;3.106;2023-09-07T07:08:20;19.50;99.90
17918;DHT22;9084;50.956;3.106;2023-09-07T07:10:45;19.60;99.40
17918;DHT22;9084;50.956;3.106;2023-09-07T07:13:11;19.70;95.60
17918;DHT22;9084;50.956;3.106;2023-09-07T07:15:37;19.70;93.90
17918;DHT22;9084;50.956;3.106;2023-09-07T07:18:03;19.80;88.40
17918;DHT22;9084;50.956;3.106;2023-09-07T07:20:38;19.90;77.30
17918;DHT22;9084;50.956;3.106;2023-09-07T07:23:06;20.00;62.40
17918;DHT22;9084;50.956;3.106;2023-09-07T07:25:32;20.00;49.50
17918;DHT22;9084;50.956;3.106;2023-09-07T07:28:05;20.10;49.70
17918;DHT22;9084;50.956;3.106;2023-09-07T07:30:35;20.20;45.50
17918;DHT22;9084;50.956;3.106;2023-09-07T07:33:02;20.20;45.60
17918;DHT22;9084;50.956;3.106;2023-09-07T07:35:34;20.30;32.10
17918;DHT22;9084;50.956;3.106;2023-09-07T07:38:07;20.30;34.80
17918;DHT22;9084;50.956;3.106;2023-09-07T07:40:33;20.40;36.00
17918;DHT22;9084;50.956;3.106;2023-09-07T07:42:59;20.40;37.30
17918;DHT22;9084;50.956;3.106;2023-09-07T07:45:27;20.50;31.50
17918;DHT22;9084;50.956;3.106;2023-09-07T07:47:55;20.50;27.80
17918;DHT22;9084;50.956;3.106;2023-09-07T07:50:27;20.60;22.80
17918;DHT22;9084;50.956;3.106;2023-09-07T07:52:53;20.70;7.80
17918;DHT22;9084;50.956;3.106;2023-09-07T07:55:19;20.80;1.00
17918;DHT22;9084;50.956;3.106;2023-09-07T07:57:49;20.80;1.00
17918;DHT22;9084;50.956;3.106;2023-09-07T08:00:15;20.90;1.00
17918;DHT22;9084;50.956;3.106;2023-09-07T08:02:40;21.00;1.00
17918;DHT22;9084;50.956;3.106;2023-09-07T08:05:09;21.10;1.00
17918;DHT22;9084;50.956;3.106;2023-09-07T08:07:37;21.10;1.00
17918;DHT22;9084;50.956;3.106;2023-09-07T08:10:05;21.20;1.00
17918;DHT22;9084;50.956;3.106;2023-09-07T08:12:33;21.20;1.00
17918;DHT22;9084;50.956;3.106;2023-09-07T08:14:59;21.30;1.00
17918;DHT22;9084;50.956;3.106;2023-09-07T08:17:29;21.40;1.00
17918;DHT22;9084;50.956;3.106;2023-09-07T08:19:57;21.40;1.00
17918;DHT22;9084;50.956;3.106;2023-09-07T08:22:27;21.50;1.00
17918;DHT22;9084;50.956;3.106;2023-09-07T08:24:55;21.60;1.00
17918;DHT22;9084;50.956;3.106;2023-09-07T08:27:21;21.60;1.00
17918;DHT22;9084;50.956;3.106;2023-09-07T08:29:49;21.70;1.00
17918;DHT22;9084;50.956;3.106;2023-09-07T08:32:17;21.80;1.00
17918;DHT22;9084;50.956;3.106;2023-09-07T08:34:46;21.80;1.00
17918;DHT22;9084;50.956;3.106;2023-09-07T08:37:12;21.90;1.00
17918;DHT22;9084;50.956;3.106;2023-09-07T08:39:37;22.00;1.00
17918;DHT22;9084;50.956;3.106;2023-09-07T08:42:07;22.10;1.00
17918;DHT22;9084;50.956;3.106;2023-09-07T08:44:39;22.10;1.00
17918;DHT22;9084;50.956;3.106;2023-09-07T08:47:12;22.20;1.00
17918;DHT22;9084;50.956;3.106;2023-09-07T08:49:40;22.20;1.00
17918;DHT22;9084;50.956;3.106;2023-09-07T08:52:09;22.30;1.00
17918;DHT22;9084;50.956;3.106;2023-09-07T08:54:36;22.40;1.00
17918;DHT22;9084;50.956;3.106;2023-09-07T08:57:05;22.40;1.00
17918;DHT22;9084;50.956;3.106;2023-09-07T08:59:31;22.40;1.00
17918;DHT22;9084;50.956;3.106;2023-09-07T09:01:59;22.50;1.00
17918;DHT22;9084;50.956;3.106;2023-09-07T09:04:27;22.50;1.00
17918;DHT22;9084;50.956;3.106;2023-09-07T09:06:57;22.60;1.00
17918;DHT22;9084;50.956;3.106;2023-09-07T09:09:24;22.60;1.00
17918;DHT22;9084;50.956;3.106;2023-09-07T09:11:51;22.70;99.90
17918;DHT22;9084;50.956;3.106;2023-09-07T09:14:19;22.70;99.90
17918;DHT22;9084;50.956;3.106;2023-09-07T09:16:52;22.80;99.90
17918;DHT22;9084;50.956;3.106;2023-09-07T09:19:18;22.90;99.90
17918;DHT22;9084;50.956;3.106;2023-09-07T09:21:46;23.00;99.90
17918;DHT22;9084;50.956;3.106;2023-09-07T09:24:17;23.00;99.90
17918;DHT22;9084;50.956;3.106;2023-09-07T09:26:43;23.10;99.90
17918;DHT22;9084;50.956;3.106;2023-09-07T09:29:09;23.10;99.90
17918;DHT22;9084;50.956;3.106;2023-09-07T09:31:36;23.10;99.90
17918;DHT22;9084;50.956;3.106;2023-09-07T09:34:02;23.10;99.90
17918;DHT22;9084;50.956;3.106;2023-09-07T09:36:33;23.20;99.90
17918;DHT22;9084;50.956;3.106;2023-09-07T09:39:02;23.20;99.90
17918;DHT22;9084;50.956;3.106;2023-09-07T09:41:37;23.30;99.90
17918;DHT22;9084;50.956;3.106;2023-09-07T09:44:04;23.30;99.90
17918;DHT22;9084;50.956;3.106;2023-09-07T09:46:31;23.40;99.90
17918;DHT22;9084;50.956;3.106;2023-09-07T09:48:58;23.40;99.90
17918;DHT22;9084;50.956;3.106;2023-09-07T09:51:24;23.40;99.90
17918;DHT22;9084;50.956;3.106;2023-09-07T09:53:53;23.50;99.90
17918;DHT22;9084;50.956;3.106;2023-09-07T09:56:19;23.50;99.90
17918;DHT22;9084;50.956;3.106;2023-09-07T09:58:48;23.60;99.90
17918;DHT22;9084;50.956;3.106;2023-09-07T10:01:20;23.80;99.90
17918;DHT22;9084;50.956;3.106;2023-09-07T10:03:54;23.80;99.90
17918;DHT22;9084;50.956;3.106;2023-09-07T10:09:02;24.00;99.90
17918;DHT22;9084;50.956;3.106;2023-09-07T10:11:39;24.00;99.90
17918;DHT22;9084;50.956;3.106;2023-09-07T10:14:08;24.00;99.90
17918;DHT22;9084;50.956;3.106;2023-09-07T10:16:43;24.00;99.90
17918;DHT22;9084;50.956;3.106;2023-09-07T10:19:17;24.10;99.90
17918;DHT22;9084;50.956;3.106;2023-09-07T10:21:45;24.10;99.90
17918;DHT22;9084;50.956;3.106;2023-09-07T10:24:14;24.20;99.90
17918;DHT22;9084;50.956;3.106;2023-09-07T10:26:56;24.30;99.90
17918;DHT22;9084;50.956;3.106;2023-09-07T10:29:22;24.40;99.90
17918;DHT22;9084;50.956;3.106;2023-09-07T10:31:52;24.50;99.90
17918;DHT22;9084;50.956;3.106;2023-09-07T10:34:17;24.60;99.90
17918;DHT22;9084;50.956;3.106;2023-09-07T10:36:48;24.70;98.20
17918;DHT22;9084;50.956;3.106;2023-09-07T10:39:16;24.70;97.10
17918;DHT22;9084;50.956;3.106;2023-09-07T10:41:45;24.70;97.70
17918;DHT22;9084;50.956;3.106;2023-09-07T10:44:13;24.80;95.40
17918;DHT22;9084;50.956;3.106;2023-09-07T10:46:39;24.80;96.60
17918;DHT22;9084;50.956;3.106;2023-09-07T10:49:08;24.80;97.30
17918;DHT22;9084;50.956;3.106;2023-09-07T10:51:47;24.80;97.90
17918;DHT22;9084;50.956;3.106;2023-09-07T10:54:23;24.90;97.50
17918;DHT22;9084;50.956;3.106;2023-09-07T10:56:50;24.90;97.60
17918;DHT22;9084;50.956;3.106;2023-09-07T10:59:18;24.90;98.10
17918;DHT22;9084;50.956;3.106;2023-09-07T11:01:46;25.00;96.80
17918;DHT22;9084;50.956;3.106;2023-09-07T11:04:12;25.10;96.10
17918;DHT22;9084;50.956;3.106;2023-09-07T11:06:40;25.10;95.30
17918;DHT22;9084;50.956;3.106;2023-09-07T11:09:09;25.20;94.80
17918;DHT22;9084;50.956;3.106;2023-09-07T11:11:36;25.20;96.00
17918;DHT22;9084;50.956;3.106;2023-09-07T11:14:03;25.20;96.90
17918;DHT22;9084;50.956;3.106;2023-09-07T11:16:33;25.20;96.70
17918;DHT22;9084;50.956;3.106;2023-09-07T11:19:03;25.30;96.30
17918;DHT22;9084;50.956;3.106;2023-09-07T11:21:30;25.30;96.40
17918;DHT22;9084;50.956;3.106;2023-09-07T11:23:57;25.40;96.70
17918;DHT22;9084;50.956;3.106;2023-09-07T11:26:22;25.50;95.90
17918;DHT22;9084;50.956;3.106;2023-09-07T11:28:48;25.60;96.40
17918;DHT22;9084;50.956;3.106;2023-09-07T11:31:19;25.60;95.50
17918;DHT22;9084;50.956;3.106;2023-09-07T11:33:46;25.60;95.00
17918;DHT22;9084;50.956;3.106;2023-09-07T11:36:15;25.50;94.80
17918;DHT22;9084;50.956;3.106;2023-09-07T11:38:43;25.50;94.80
17918;DHT22;9084;50.956;3.106;2023-09-07T11:41:16;25.50;94.80
17918;DHT22;9084;50.956;3.106;2023-09-07T11:43:44;25.50;94.90
17918;DHT22;9084;50.956;3.106;2023-09-07T11:46:10;25.50;95.10
17918;DHT22;9084;50.956;3.106;2023-09-07T11:48:38;25.50;94.90
17918;DHT22;9084;50.956;3.106;2023-09-07T11:51:04;25.50;94.80
17918;DHT22;9084;50.956;3.106;2023-09-07T11:53:30;25.50;94.50
17918;DHT22;9084;50.956;3.106;2023-09-07T11:55:57;25.40;94.50
17918;DHT22;9084;50.956;3.106;2023-09-07T11:58:25;25.60;93.90
17918;DHT22;9084;50.956;3.106;2023-09-07T12:00:54;25.60;92.60
17918;DHT22;9084;50.956;3.106;2023-09-07T12:03:22;25.60;93.70
17918;DHT22;9084;50.956;3.106;2023-09-07T12:05:47;25.60;93.90
17918;DHT22;9084;50.956;3.106;2023-09-07T12:08:15;25.80;94.30
17918;DHT22;9084;50.956;3.106;2023-09-07T12:10:43;25.70;93.30
17918;DHT22;9084;50.956;3.106;2023-09-07T12:13:11;25.80;93.30
17918;DHT22;9084;50.956;3.106;2023-09-07T12:15:39;25.80;92.70
17918;DHT22;9084;50.956;3.106;2023-09-07T12:18:07;25.80;92.80
17918;DHT22;9084;50.956;3.106;2023-09-07T12:20:35;25.80;92.70
17918;DHT22;9084;50.956;3.106;2023-09-07T12:23:06;25.80;91.70
17918;DHT22;9084;50.956;3.106;2023-09-07T12:25:31;25.90;92.40
17918;DHT22;9084;50.956;3.106;2023-09-07T12:27:59;25.90;91.80
17918;DHT22;9084;50.956;3.106;2023-09-07T12:30:27;25.90;91.40
17918;DHT22;9084;50.956;3.106;2023-09-07T12:32:53;26.00;90.60
17918;DHT22;9084;50.956;3.106;2023-09-07T12:35:21;26.00;91.10
17918;DHT22;9084;50.956;3.106;2023-09-07T12:37:47;26.10;90.50
17918;DHT22;9084;50.956;3.106;2023-09-07T12:40:18;26.10;90.50
17918;DHT22;9084;50.956;3.106;2023-09-07T12:42:45;26.10;90.50
17918;DHT22;9084;50.956;3.106;2023-09-07T12:45:14;26.20;88.40
17918;DHT22;9084;50.956;3.106;2023-09-07T12:47:40;26.20;89.90
17918;DHT22;9084;50.956;3.106;2023-09-07T12:50:08;26.30;87.60
17918;DHT22;9084;50.956;3.106;2023-09-07T12:52:34;26.30;87.50
17918;DHT22;9084;50.956;3.106;2023-09-07T12:55:05;26.30;87.20
17918;DHT22;9084;50.956;3.106;2023-09-07T12:57:33;26.30;88.20
17918;DHT22;9084;50.956;3.106;2023-09-07T12:59:59;26.40;87.60
17918;DHT22;9084;50.956;3.106;2023-09-07T13:02:30;26.50;85.90
17918;DHT22;9084;50.956;3.106;2023-09-07T13:04:55;26.60;86.50
17918;DHT22;9084;50.956;3.106;2023-09-07T13:07:21;26.60;85.40
17918;DHT22;9084;50.956;3.106;2023-09-07T13:09:49;26.60;86.10
17918;DHT22;9084;50.956;3.106;2023-09-07T13:12:17;26.60;86.90
17918;DHT22;9084;50.956;3.106;2023-09-07T13:14:45;26.60;85.20
17918;DHT22;9084;50.956;3.106;2023-09-07T13:17:13;26.60;84.40
17918;DHT22;9084;50.956;3.106;2023-09-07T13:19:42;26.70;85.60
17918;DHT22;9084;50.956;3.106;2023-09-07T13:22:09;26.60;86.00
17918;DHT22;9084;50.956;3.106;2023-09-07T13:24:36;26.70;85.60
17918;DHT22;9084;50.956;3.106;2023-09-07T13:27:02;26.70;85.20
17918;DHT22;9084;50.956;3.106;2023-09-07T13:29:31;26.70;84.90
17918;DHT22;9084;50.956;3.106;2023-09-07T13:31:59;26.70;85.60
17918;DHT22;9084;50.956;3.106;2023-09-07T13:34:25;26.60;85.40
17918;DHT22;9084;50.956;3.106;2023-09-07T13:36:51;26.70;85.80
17918;DHT22;9084;50.956;3.106;2023-09-07T13:39:17;26.70;83.80
17918;DHT22;9084;50.956;3.106;2023-09-07T13:41:43;26.70;85.60
17918;DHT22;9084;50.956;3.106;2023-09-07T13:44:13;26.70;85.50
17918;DHT22;9084;50.956;3.106;2023-09-07T13:46:39;26.80;86.20
17918;DHT22;9084;50.956;3.106;2023-09-07T13:49:04;26.80;86.80
17918;DHT22;9084;50.956;3.106;2023-09-07T13:51:30;26.80;86.40
17918;DHT22;9084;50.956;3.106;2023-09-07T13:54:00;26.80;86.20
17918;DHT22;9084;50.956;3.106;2023-09-07T13:56:28;26.80;85.70
17918;DHT22;9084;50.956;3.106;2023-09-07T13:58:59;26.80;85.80
17918;DHT22;9084;50.956;3.106;2023-09-07T14:01:27;26.90;86.80
17918;DHT22;9084;50.956;3.106;2023-09-07T14:03:53;26.80;86.50
17918;DHT22;9084;50.956;3.106;2023-09-07T14:06:19;26.80;86.40
17918;DHT22;9084;50.956;3.106;2023-09-07T14:08:47;26.80;86.10
17918;DHT22;9084;50.956;3.106;2023-09-07T14:11:14;26.90;86.00
17918;DHT22;9084;50.956;3.106;2023-09-07T14:13:42;26.90;85.30
17918;DHT22;9084;50.956;3.106;2023-09-07T14:16:10;26.90;84.70
17918;DHT22;9084;50.956;3.106;2023-09-07T14:18:36;27.00;85.50
17918;DHT22;9084;50.956;3.106;2023-09-07T14:21:02;26.90;85.80
17918;DHT22;9084;50.956;3.106;2023-09-07T14:23:30;27.00;86.10
17918;DHT22;9084;50.956;3.106;2023-09-07T14:25:56;27.00;86.20
17918;DHT22;9084;50.956;3.106;2023-09-07T14:28:21;27.00;85.90
17918;DHT22;9084;50.956;3.106;2023-09-07T14:30:47;27.00;86.00
17918;DHT22;9084;50.956;3.106;2023-09-07T14:33:13;27.00;86.50
17918;DHT22;9084;50.956;3.106;2023-09-07T14:35:39;27.00;86.10
17918;DHT22;9084;50.956;3.106;2023-09-07T14:38:09;27.00;86.80
17918;DHT22;9084;50.956;3.106;2023-09-07T14:40:35;27.00;86.30
17918;DHT22;9084;50.956;3.106;2023-09-07T14:43:03;27.00;87.10
17918;DHT22;9084;50.956;3.106;2023-09-07T14:45:29;27.00;86.90
17918;DHT22;9084;50.956;3.106;2023-09-07T14:47:55;27.00;88.10
17918;DHT22;9084;50.956;3.106;2023-09-07T14:50:22;27.00;88.50
17918;DHT22;9084;50.956;3.106;2023-09-07T14:52:50;27.00;88.30
17918;DHT22;9084;50.956;3.106;2023-09-07T14:55:21;26.90;88.30
17918;DHT22;9084;50.956;3.106;2023-09-07T14:57:49;26.90;88.40
17918;DHT22;9084;50.956;3.106;2023-09-07T15:00:17;26.90;89.00
17918;DHT22;9084;50.956;3.106;2023-09-07T15:02:43;26.90;89.00
17918;DHT22;9084;50.956;3.106;2023-09-07T15:05:11;27.00;89.00
17918;DHT22;9084;50.956;3.106;2023-09-07T15:07:41;26.90;89.20
17918;DHT22;9084;50.956;3.106;2023-09-07T15:10:07;26.90;89.60
17918;DHT22;9084;50.956;3.106;2023-09-07T15:12:33;26.80;89.70
17918;DHT22;9084;50.956;3.106;2023-09-07T15:14:58;26.90;90.00
17918;DHT22;9084;50.956;3.106;2023-09-07T15:17:27;26.90;90.00
17918;DHT22;9084;50.956;3.106;2023-09-07T15:19:53;26.90;90.70
17918;DHT22;9084;50.956;3.106;2023-09-07T15:22:21;26.90;90.70
17918;DHT22;9084;50.956;3.106;2023-09-07T15:24:48;26.90;91.00
17918;DHT22;9084;50.956;3.106;2023-09-07T15:27:14;26.80;90.80
17918;DHT22;9084;50.956;3.106;2023-09-07T15:29:40;26.80;91.40
17918;DHT22;9084;50.956;3.106;2023-09-07T15:32:06;26.80;91.20
17918;DHT22;9084;50.956;3.106;2023-09-07T15:34:32;26.70;92.00
17918;DHT22;9084;50.956;3.106;2023-09-07T15:37:02;26.80;92.60
17918;DHT22;9084;50.956;3.106;2023-09-07T15:39:28;26.80;92.00
17918;DHT22;9084;50.956;3.106;2023-09-07T15:41:54;26.80;92.50
17918;DHT22;9084;50.956;3.106;2023-09-07T15:44:22;26.80;92.50
17918;DHT22;9084;50.956;3.106;2023-09-07T15:46:50;26.80;92.40
17918;DHT22;9084;50.956;3.106;2023-09-07T15:49:19;26.80;92.40
17918;DHT22;9084;50.956;3.106;2023-09-07T15:51:45;26.70;92.50